createdAt,value
2019-03-15T00:02:11.357Z,6.90
2019-03-15T00:04:42.551Z,7.00
2019-03-15T00:07:18.671Z,6.80
2019-03-15T00:09:50.635Z,6.90
2019-03-15T00:12:22.383Z,7.00
2019-03-15T00:14:53.940Z,6.90
2019-03-15T00:17:27.004Z,6.90
2019-03-15T00:19:59.503Z,7.00
2019-03-15T00:22:31.477Z,7.00
2019-03-15T00:27:59.493Z,7.10
2019-03-15T00:30:31.490Z,7.10
2019-03-15T00:33:04.543Z,7.00
2019-03-15T00:35:36.658Z,7.10
2019-03-15T00:41:02.527Z,7.00
2019-03-15T00:52:01.376Z,7.10
2019-03-15T00:54:32.902Z,7.20
2019-03-15T00:57:04.910Z,7.10
2019-03-15T00:59:42.878Z,7.10
2019-03-15T01:02:14.925Z,7.10
2019-03-15T01:04:47.151Z,7.10
2019-03-15T01:07:19.107Z,7.00
2019-03-15T01:09:51.694Z,7.10
2019-03-15T01:12:23.412Z,7.10
2019-03-15T01:14:54.888Z,7.00
2019-03-15T01:17:27.591Z,7.10
2019-03-15T01:20:00.285Z,7.00
2019-03-15T01:22:31.822Z,7.10
2019-03-15T01:25:04.180Z,7.00
2019-03-15T01:27:36.057Z,7.10
2019-03-15T01:30:08.137Z,7.10
2019-03-15T01:32:40.628Z,7.10
2019-03-15T01:35:12.868Z,7.20
2019-03-15T01:37:44.912Z,7.20
2019-03-15T01:40:16.450Z,7.10
2019-03-15T01:42:48.280Z,7.20
2019-03-15T01:45:21.507Z,7.10
2019-03-15T01:47:53.401Z,7.20
2019-03-15T01:50:24.741Z,7.30
2019-03-15T01:52:56.782Z,7.30
2019-03-15T01:55:28.039Z,7.40
2019-03-15T01:57:59.318Z,7.40
2019-03-15T02:00:31.981Z,7.40
2019-03-15T02:03:03.880Z,7.40
2019-03-15T02:05:35.775Z,7.40
2019-03-15T02:08:08.212Z,7.50
2019-03-15T02:10:40.199Z,7.50
2019-03-15T02:13:11.540Z,7.50
2019-03-15T02:15:43.546Z,7.60
2019-03-15T02:18:15.599Z,7.70
2019-03-15T02:20:47.334Z,7.60
2019-03-15T02:23:18.899Z,7.70
2019-03-15T02:25:50.437Z,7.60
2019-03-15T02:28:21.634Z,7.60
2019-03-15T02:30:53.221Z,7.70
2019-03-15T02:33:24.821Z,7.60
2019-03-15T02:35:56.300Z,7.70
2019-03-15T02:38:27.329Z,7.70
2019-03-15T02:40:58.985Z,7.80
2019-03-15T02:43:30.559Z,7.80
2019-03-15T02:46:02.109Z,7.70
2019-03-15T02:48:33.825Z,7.60
2019-03-15T02:51:04.813Z,7.70
2019-03-15T02:53:36.056Z,7.70
2019-03-15T02:56:07.737Z,7.60
2019-03-15T02:58:39.667Z,7.60
2019-03-15T03:01:11.528Z,7.60
2019-03-15T03:03:43.105Z,7.70
2019-03-15T03:06:14.691Z,7.70
2019-03-15T03:08:46.613Z,7.60
2019-03-15T03:11:18.170Z,7.60
2019-03-15T03:13:49.913Z,7.70
2019-03-15T03:16:21.284Z,7.60
2019-03-15T03:18:52.835Z,7.70
2019-03-15T03:21:24.675Z,7.70
2019-03-15T03:23:57.348Z,7.70
2019-03-15T03:26:29.413Z,7.60
2019-03-15T03:29:00.846Z,7.50
2019-03-15T03:31:33.360Z,7.50
2019-03-15T03:34:04.357Z,7.50
2019-03-15T03:36:35.885Z,7.50
2019-03-15T03:39:08.319Z,7.40
2019-03-15T03:41:40.563Z,7.50
2019-03-15T03:44:12.092Z,7.60
2019-03-15T03:46:43.290Z,7.60
2019-03-15T03:49:14.381Z,7.50
2019-03-15T03:51:46.232Z,7.50
2019-03-15T03:54:17.333Z,7.50
2019-03-15T03:56:48.939Z,7.60
2019-03-15T03:59:20.837Z,7.50
2019-03-15T04:01:52.355Z,7.60
2019-03-15T04:04:23.912Z,7.60
2019-03-15T04:06:56.002Z,7.50
2019-03-15T04:09:27.341Z,7.70
2019-03-15T04:11:59.204Z,7.80
2019-03-15T04:14:30.795Z,7.80
2019-03-15T04:17:02.055Z,7.80
2019-03-15T04:19:33.583Z,7.90
2019-03-15T04:22:05.130Z,7.90
2019-03-15T04:24:37.052Z,7.80
2019-03-15T04:27:08.385Z,7.80
2019-03-15T04:29:40.256Z,7.80
2019-03-15T04:32:10.979Z,7.90
2019-03-15T04:34:42.667Z,7.80
2019-03-15T04:37:13.974Z,7.80
2019-03-15T04:39:45.790Z,7.90
2019-03-15T04:42:17.543Z,7.90
2019-03-15T04:44:49.366Z,8.00
2019-03-15T04:47:20.706Z,8.10
2019-03-15T04:49:52.879Z,8.10
2019-03-15T04:52:24.231Z,8.10
2019-03-15T04:54:55.505Z,8.00
2019-03-15T04:57:27.403Z,8.10
2019-03-15T05:00:00.811Z,8.20
2019-03-15T05:02:32.312Z,8.20
2019-03-15T05:05:06.270Z,8.10
2019-03-15T05:07:40.816Z,8.00
2019-03-15T05:10:12.184Z,8.10
2019-03-15T05:12:43.633Z,8.10
2019-03-15T05:15:15.217Z,8.10
2019-03-15T05:17:47.255Z,8.00
2019-03-15T05:20:21.063Z,7.90
2019-03-15T05:22:51.903Z,8.00
2019-03-15T05:25:29.725Z,8.00
2019-03-15T05:28:00.695Z,7.90
2019-03-15T05:30:34.623Z,7.90
2019-03-15T05:33:05.876Z,7.90
2019-03-15T05:35:47.651Z,7.90
2019-03-15T05:38:19.992Z,7.90
2019-03-15T05:41:03.814Z,7.80
2019-03-15T05:43:43.958Z,7.80
2019-03-15T05:46:16.567Z,7.80
2019-03-15T05:48:48.035Z,7.80
2019-03-15T05:51:33.866Z,7.90
2019-03-15T05:54:05.134Z,7.80
2019-03-15T05:56:36.464Z,7.80
2019-03-15T05:59:08.459Z,7.90
2019-03-15T06:01:40.017Z,7.80
2019-03-15T06:04:11.245Z,7.80
2019-03-15T06:06:43.179Z,7.80
2019-03-15T06:09:14.247Z,7.80
2019-03-15T06:11:45.260Z,7.80
2019-03-15T06:14:21.517Z,7.70
2019-03-15T06:16:53.471Z,7.70
2019-03-15T06:19:25.311Z,7.80
2019-03-15T06:21:56.582Z,7.70
2019-03-15T06:24:28.197Z,7.70
2019-03-15T06:27:00.320Z,7.70
2019-03-15T06:29:32.295Z,7.70
2019-03-15T06:32:03.997Z,7.70
2019-03-15T06:34:35.683Z,7.60
2019-03-15T06:37:07.512Z,7.70
2019-03-15T06:39:39.221Z,7.80
2019-03-15T06:42:10.215Z,7.80
2019-03-15T06:44:41.763Z,7.90
2019-03-15T06:47:13.623Z,7.80
2019-03-15T06:49:45.544Z,7.80
2019-03-15T06:52:16.496Z,7.70
2019-03-15T06:54:47.515Z,7.80
2019-03-15T06:57:19.352Z,7.70
2019-03-15T06:59:50.578Z,7.70
2019-03-15T07:02:22.468Z,7.80
2019-03-15T07:04:54.530Z,7.80
2019-03-15T07:07:26.122Z,7.80
2019-03-15T07:09:57.393Z,7.90
2019-03-15T07:12:29.140Z,7.80
2019-03-15T07:15:01.052Z,7.80
2019-03-15T07:17:38.530Z,7.80
2019-03-15T07:20:10.747Z,7.90
2019-03-15T07:22:42.247Z,8.00
2019-03-15T07:25:13.641Z,8.00
2019-03-15T07:27:45.465Z,8.00
2019-03-15T07:30:17.125Z,7.90
2019-03-15T07:32:48.702Z,8.00
2019-03-15T07:35:20.274Z,8.00
2019-03-15T07:37:51.020Z,7.90
2019-03-15T07:40:22.996Z,7.90
2019-03-15T07:42:54.017Z,8.00
2019-03-15T07:45:25.560Z,8.10
2019-03-15T07:47:57.429Z,8.10
2019-03-15T07:50:28.396Z,8.20
2019-03-15T07:52:59.925Z,8.30
2019-03-15T07:55:30.966Z,8.20
2019-03-15T07:58:02.810Z,8.30
2019-03-15T08:00:35.351Z,8.40
2019-03-15T08:03:07.327Z,8.40
2019-03-15T08:05:38.888Z,8.40
2019-03-15T08:08:10.810Z,8.30
2019-03-15T08:10:42.058Z,8.40
2019-03-15T08:13:13.059Z,8.40
2019-03-15T08:15:44.117Z,8.40
2019-03-15T08:18:15.346Z,8.40
2019-03-15T08:20:46.335Z,8.40
2019-03-15T08:23:18.003Z,8.40
2019-03-15T08:25:50.578Z,8.40
2019-03-15T08:28:22.000Z,8.50
2019-03-15T08:30:53.937Z,8.40
2019-03-15T08:33:25.373Z,8.40
2019-03-15T08:35:57.207Z,8.40
2019-03-15T08:38:28.211Z,8.40
2019-03-15T08:40:59.837Z,8.50
2019-03-15T08:43:31.205Z,8.50
2019-03-15T08:46:03.219Z,8.50
2019-03-15T08:48:35.342Z,8.60
2019-03-15T08:51:06.597Z,8.60
2019-03-15T08:53:37.908Z,8.60
2019-03-15T08:56:09.596Z,8.60
2019-03-15T08:58:41.203Z,8.70
2019-03-15T09:01:12.592Z,8.80
2019-03-15T09:03:44.278Z,8.80
2019-03-15T09:06:15.299Z,8.80
2019-03-15T09:08:46.920Z,8.70
2019-03-15T09:11:18.504Z,8.80
2019-03-15T09:13:49.881Z,8.80
2019-03-15T09:16:21.451Z,8.90
2019-03-15T09:18:55.452Z,8.90
2019-03-15T09:21:26.934Z,9.00
2019-03-15T09:23:58.202Z,9.00
2019-03-15T09:26:30.717Z,9.00
2019-03-15T09:29:02.062Z,9.00
2019-03-15T09:31:46.982Z,9.00
2019-03-15T09:34:07.312Z,9.10
2019-03-15T09:36:49.518Z,9.10
2019-03-15T09:39:12.232Z,9.30
2019-03-15T09:41:43.485Z,9.30
2019-03-15T09:44:15.172Z,9.40
2019-03-15T09:46:47.120Z,9.40
2019-03-15T09:49:18.384Z,9.50
2019-03-15T09:51:49.675Z,9.60
2019-03-15T09:54:21.221Z,9.70
2019-03-15T09:56:52.813Z,9.70
2019-03-15T09:59:23.844Z,9.70
2019-03-15T10:01:55.659Z,9.70
2019-03-15T10:04:27.500Z,9.80
2019-03-15T10:06:59.193Z,9.90
2019-03-15T10:09:44.899Z,9.90
2019-03-15T10:12:04.855Z,9.90
2019-03-15T10:14:36.907Z,10.00
2019-03-15T10:17:08.470Z,9.90
2019-03-15T10:19:39.820Z,10.00
2019-03-15T10:22:11.420Z,10.10
2019-03-15T10:24:42.745Z,10.10
2019-03-15T10:27:14.423Z,10.10
2019-03-15T10:29:46.458Z,10.20
2019-03-15T10:32:18.073Z,10.30
2019-03-15T10:34:49.336Z,10.30
2019-03-15T10:37:20.646Z,10.20
2019-03-15T10:39:52.013Z,10.10
2019-03-15T10:42:23.556Z,10.30
2019-03-15T10:44:55.543Z,10.20
2019-03-15T10:47:27.167Z,10.30
2019-03-15T10:49:59.967Z,10.30
2019-03-15T10:52:31.766Z,10.50
2019-03-15T10:55:04.093Z,10.50
2019-03-15T10:57:36.205Z,10.60
2019-03-15T11:05:26.623Z,10.90
2019-03-15T11:07:58.754Z,10.90
2019-03-15T11:10:31.374Z,11.00
2019-03-15T11:13:03.581Z,11.00
2019-03-15T11:15:36.118Z,11.00
2019-03-15T11:18:07.215Z,11.20
2019-03-15T11:20:38.769Z,11.20
2019-03-15T11:23:10.937Z,11.30
2019-03-15T11:25:42.229Z,11.30
2019-03-15T11:28:14.121Z,11.50
2019-03-15T11:30:45.674Z,11.50
2019-03-15T11:33:17.783Z,11.60
2019-03-15T11:35:48.744Z,11.70
2019-03-15T11:38:20.083Z,11.80
2019-03-15T11:40:51.757Z,11.80
2019-03-15T11:43:23.652Z,11.70
2019-03-15T11:45:54.902Z,11.90
2019-03-15T11:48:26.749Z,12.00
2019-03-15T11:50:58.327Z,11.90
2019-03-15T11:53:29.904Z,12.00
2019-03-15T11:56:01.493Z,12.10
2019-03-15T11:58:32.806Z,12.10
2019-03-15T12:01:03.946Z,12.20
2019-03-15T12:03:35.734Z,12.30
2019-03-15T12:06:07.322Z,12.50
2019-03-15T12:08:38.942Z,12.30
2019-03-15T12:11:10.944Z,12.50
2019-03-15T12:13:42.483Z,12.40
2019-03-15T12:16:13.715Z,12.50
2019-03-15T12:18:45.332Z,12.40
2019-03-15T12:21:17.310Z,12.40
2019-03-15T12:23:48.309Z,12.50
2019-03-15T12:26:19.427Z,12.40
2019-03-15T12:28:51.310Z,12.40
2019-03-15T12:31:22.370Z,12.40
2019-03-15T12:33:53.965Z,12.40
2019-03-15T12:36:25.585Z,12.40
2019-03-15T12:38:58.464Z,12.40
2019-03-15T12:41:30.102Z,12.50
2019-03-15T12:44:01.512Z,12.40
2019-03-15T12:46:32.956Z,12.50
2019-03-15T12:49:04.228Z,12.40
2019-03-15T12:51:36.148Z,12.30
2019-03-15T12:54:07.475Z,12.30
2019-03-15T12:56:52.881Z,12.20
2019-03-15T12:59:12.976Z,12.20
2019-03-15T13:01:44.259Z,12.10
2019-03-15T13:04:16.480Z,12.10
2019-03-15T13:06:47.866Z,12.10
2019-03-15T13:09:19.182Z,12.10
2019-03-15T13:11:49.767Z,12.20
2019-03-15T13:14:21.202Z,12.10
2019-03-15T13:16:53.070Z,12.20
2019-03-15T13:19:24.964Z,12.20
2019-03-15T13:21:57.174Z,12.20
2019-03-15T13:24:28.984Z,12.30
2019-03-15T13:27:07.417Z,12.30
2019-03-15T13:29:33.859Z,12.30
2019-03-15T13:32:05.750Z,12.30
2019-03-15T13:34:37.164Z,12.40
2019-03-15T13:37:07.855Z,12.30
2019-03-15T13:39:39.738Z,12.40
2019-03-15T13:42:11.388Z,12.40
2019-03-15T13:44:43.274Z,12.40
2019-03-15T13:47:14.850Z,12.30
2019-03-15T13:49:46.575Z,12.20
2019-03-15T13:52:18.241Z,12.20
2019-03-15T13:54:50.192Z,12.20
2019-03-15T13:57:21.974Z,12.10
2019-03-15T13:59:53.572Z,12.20
2019-03-15T14:02:26.089Z,12.10
2019-03-15T14:04:57.960Z,12.10
2019-03-15T14:07:30.235Z,12.20
2019-03-15T14:10:04.138Z,12.20
2019-03-15T14:12:35.575Z,12.20
2019-03-15T14:15:08.695Z,12.30
2019-03-15T14:17:40.340Z,12.40
2019-03-15T14:20:13.016Z,12.30
2019-03-15T14:22:44.579Z,12.30
2019-03-15T14:25:16.223Z,12.30
2019-03-15T14:27:47.458Z,12.20
2019-03-15T14:30:19.223Z,12.20
2019-03-15T14:32:51.824Z,12.30
2019-03-15T14:35:24.276Z,12.20
2019-03-15T14:37:55.831Z,12.30
2019-03-15T14:40:27.944Z,12.20
2019-03-15T14:42:59.654Z,12.20
2019-03-15T14:45:31.373Z,12.20
2019-03-15T14:50:54.207Z,12.10
2019-03-15T14:53:27.879Z,12.10
2019-03-15T14:56:01.692Z,12.10
2019-03-15T14:58:33.954Z,12.00
2019-03-15T15:01:05.820Z,12.10
2019-03-15T15:03:36.589Z,12.00
2019-03-15T15:06:07.886Z,11.90
2019-03-15T15:08:39.544Z,11.90
2019-03-15T15:11:10.586Z,11.80
2019-03-15T15:13:42.329Z,11.80
2019-03-15T15:16:13.820Z,11.80
2019-03-15T15:18:44.824Z,11.70
2019-03-15T15:21:16.451Z,11.80
2019-03-15T15:23:47.833Z,11.80
2019-03-15T15:26:19.448Z,11.70
2019-03-15T15:28:50.719Z,11.60
2019-03-15T15:31:21.752Z,11.70
2019-03-15T15:33:53.756Z,11.70
2019-03-15T15:36:25.632Z,11.70
2019-03-15T15:38:57.202Z,11.70
2019-03-15T15:41:28.818Z,11.60
2019-03-15T15:44:00.045Z,11.60
2019-03-15T15:46:31.563Z,11.60
2019-03-15T15:49:02.824Z,11.70
2019-03-15T15:51:34.733Z,11.60
2019-03-15T15:54:06.410Z,11.60
2019-03-15T15:56:38.385Z,11.70
2019-03-15T15:59:10.209Z,11.60
2019-03-15T16:01:41.953Z,11.50
2019-03-15T16:04:14.222Z,11.60
2019-03-15T16:06:46.621Z,11.50
2019-03-15T16:09:19.442Z,11.60
2019-03-15T16:11:51.230Z,11.50
2019-03-15T16:14:23.075Z,11.50
2019-03-15T16:16:54.861Z,11.50
2019-03-15T16:19:26.218Z,11.60
2019-03-15T16:21:58.658Z,11.60
2019-03-15T16:24:29.729Z,11.60
2019-03-15T16:27:02.058Z,11.60
2019-03-15T16:29:35.904Z,11.60
2019-03-15T16:32:07.355Z,11.60
2019-03-15T16:34:38.613Z,11.50
2019-03-15T16:37:09.946Z,11.50
2019-03-15T16:39:41.278Z,11.50
2019-03-15T16:42:12.819Z,11.50
2019-03-15T16:44:44.150Z,11.50
2019-03-15T16:47:15.622Z,11.50
2019-03-15T16:49:46.883Z,11.50
2019-03-15T16:52:18.777Z,11.50
2019-03-15T16:54:50.372Z,11.50
2019-03-15T16:57:22.604Z,11.40
2019-03-15T16:59:54.664Z,11.40
2019-03-15T17:02:26.935Z,11.40
2019-03-15T17:04:58.618Z,11.40
2019-03-15T17:07:30.607Z,11.50
2019-03-15T17:10:02.087Z,11.50
2019-03-15T17:12:34.005Z,11.50
2019-03-15T17:15:05.820Z,11.50
2019-03-15T17:17:37.408Z,11.50
2019-03-15T17:20:10.010Z,11.40
2019-03-15T17:22:40.731Z,11.40
2019-03-15T17:25:22.348Z,11.40
2019-03-15T17:27:53.067Z,11.40
2019-03-15T17:30:28.843Z,11.40
2019-03-15T17:33:06.211Z,11.40
2019-03-15T17:35:37.044Z,11.40
2019-03-15T17:38:08.624Z,11.40
2019-03-15T17:40:40.553Z,11.40
2019-03-15T17:43:14.772Z,11.40
2019-03-15T17:45:46.770Z,11.40
2019-03-15T17:48:21.717Z,11.30
2019-03-15T17:50:56.579Z,11.40
2019-03-15T17:53:51.027Z,11.40
2019-03-15T17:56:22.485Z,11.40
2019-03-15T17:58:53.611Z,11.50
2019-03-15T18:01:25.290Z,11.50
2019-03-15T18:04:15.407Z,11.50
2019-03-15T18:06:46.543Z,11.50
2019-03-15T18:09:19.250Z,11.40
2019-03-15T18:11:51.390Z,11.50
2019-03-15T18:14:23.897Z,11.40
2019-03-15T18:16:55.795Z,11.40
2019-03-15T18:19:27.941Z,11.40
2019-03-15T18:21:59.829Z,11.50
2019-03-15T18:24:31.358Z,11.40
2019-03-15T18:27:02.948Z,11.40
2019-03-15T18:29:34.709Z,11.40
2019-03-15T18:32:06.795Z,11.50
2019-03-15T18:34:38.703Z,11.40
2019-03-15T18:37:11.263Z,11.40
2019-03-15T18:39:43.048Z,11.50
2019-03-15T18:42:14.525Z,11.40
2019-03-15T18:44:46.162Z,11.40
2019-03-15T18:47:17.834Z,11.40
2019-03-15T18:49:49.703Z,11.50
2019-03-15T18:52:22.485Z,11.50
2019-03-15T18:54:54.666Z,11.50
2019-03-15T18:57:26.459Z,11.50
2019-03-15T18:59:58.424Z,11.60
2019-03-15T19:02:30.499Z,11.50
2019-03-15T19:05:02.498Z,11.50
2019-03-15T19:07:34.060Z,11.50
2019-03-15T19:10:05.906Z,11.50
2019-03-15T19:12:38.153Z,11.50
2019-03-15T19:15:11.524Z,11.60
2019-03-15T19:17:43.895Z,11.60
2019-03-15T19:20:15.407Z,11.50
2019-03-15T19:22:47.138Z,11.50
2019-03-15T19:25:18.926Z,11.50
2019-03-15T19:27:51.353Z,11.50
2019-03-15T19:30:22.751Z,11.60
2019-03-15T19:32:54.810Z,11.60
2019-03-15T19:35:26.770Z,11.60
2019-03-15T19:37:58.535Z,11.70
2019-03-15T19:40:31.391Z,11.70
2019-03-15T19:43:03.314Z,11.60
2019-03-15T19:45:35.845Z,11.70
2019-03-15T19:48:13.106Z,11.60
2019-03-15T19:50:45.615Z,11.60
2019-03-15T19:53:17.092Z,11.60
2019-03-15T19:55:48.930Z,11.60
2019-03-15T19:58:21.584Z,11.70
2019-03-15T20:00:53.532Z,11.70
2019-03-15T20:03:26.511Z,11.70
2019-03-15T20:06:01.115Z,11.70
2019-03-15T20:08:32.853Z,11.70
2019-03-15T20:11:04.170Z,11.70
2019-03-15T20:13:35.913Z,11.70
2019-03-15T20:16:08.243Z,11.70
2019-03-15T20:18:39.873Z,11.70
2019-03-15T20:21:11.646Z,11.70
2019-03-15T20:23:43.401Z,11.70
2019-03-15T20:26:15.426Z,11.80
2019-03-15T20:28:46.773Z,11.80
2019-03-15T20:31:18.402Z,11.80
2019-03-15T20:33:50.816Z,11.70
2019-03-15T20:36:23.010Z,11.90
2019-03-15T20:38:55.579Z,11.90
2019-03-15T20:41:27.816Z,11.80
2019-03-15T20:44:00.688Z,11.90
2019-03-15T20:46:37.510Z,11.90
2019-03-15T20:49:09.833Z,11.90
2019-03-15T20:51:43.725Z,11.90
2019-03-15T20:54:16.642Z,11.90
2019-03-15T20:56:51.312Z,11.90
2019-03-15T20:59:26.571Z,11.90
2019-03-15T21:01:58.608Z,11.90
2019-03-15T21:04:30.469Z,12.00
2019-03-15T21:07:02.395Z,12.00
2019-03-15T21:09:33.679Z,12.00
2019-03-15T21:12:06.483Z,12.00
2019-03-15T21:14:38.437Z,11.90
2019-03-15T21:17:11.203Z,11.90
2019-03-15T21:19:43.099Z,11.90
2019-03-15T21:22:15.146Z,11.90
2019-03-15T21:24:46.889Z,11.90
2019-03-15T21:27:19.093Z,12.00
2019-03-15T21:29:52.852Z,11.90
2019-03-15T21:32:25.105Z,11.90
2019-03-15T21:34:59.820Z,11.90
2019-03-15T21:37:31.894Z,12.00
2019-03-15T21:40:05.331Z,12.00
2019-03-15T21:42:37.623Z,12.00
2019-03-15T21:45:09.264Z,11.80
2019-03-15T21:47:41.099Z,11.90
2019-03-15T21:50:14.280Z,11.90
2019-03-15T21:52:45.849Z,11.80
2019-03-15T21:55:32.631Z,11.80
2019-03-15T21:58:07.343Z,11.80
2019-03-15T22:00:39.560Z,11.80
2019-03-15T22:03:11.124Z,11.80
2019-03-15T22:05:44.285Z,11.80
2019-03-15T22:08:16.345Z,11.80
2019-03-15T22:11:21.199Z,11.80
2019-03-15T22:13:46.203Z,11.70
2019-03-15T22:16:18.326Z,11.70
2019-03-15T22:19:01.941Z,11.70
2019-03-15T22:21:33.990Z,11.70
2019-03-15T22:27:03.336Z,11.70
2019-03-15T22:29:53.830Z,11.70
2019-03-15T22:32:24.963Z,11.70
2019-03-15T22:34:56.919Z,11.60
2019-03-15T22:37:29.609Z,11.60
2019-03-15T22:40:00.985Z,11.60
2019-03-15T22:42:32.954Z,11.60
2019-03-15T22:45:04.837Z,11.50
2019-03-15T22:47:36.525Z,11.60
2019-03-15T22:50:07.898Z,11.60
2019-03-15T22:52:39.639Z,11.50
2019-03-15T22:55:11.675Z,11.50
2019-03-15T22:57:43.335Z,11.50
2019-03-15T23:00:15.871Z,11.60
2019-03-15T23:02:47.867Z,11.50
2019-03-15T23:05:18.923Z,11.40
2019-03-15T23:07:50.575Z,11.50
2019-03-15T23:10:21.920Z,11.40
2019-03-15T23:12:53.209Z,11.40
2019-03-15T23:15:25.002Z,11.30
2019-03-15T23:17:56.639Z,11.30
2019-03-15T23:20:28.040Z,11.20
2019-03-15T23:22:59.490Z,11.20
2019-03-15T23:25:31.241Z,11.30
2019-03-15T23:28:02.920Z,11.30
2019-03-15T23:30:34.661Z,11.20
2019-03-15T23:33:06.436Z,11.30
2019-03-15T23:35:52.852Z,11.20
2019-03-15T23:38:10.648Z,11.30
2019-03-15T23:40:42.085Z,11.20
2019-03-15T23:43:13.411Z,11.20
2019-03-15T23:45:44.715Z,11.20
2019-03-15T23:48:15.766Z,11.20
2019-03-15T23:50:47.358Z,11.20
2019-03-15T23:53:19.171Z,11.30
2019-03-15T23:55:50.745Z,11.20
